createdAt,value
2023-03-21T00:00:56.332Z,4.20
2023-03-21T00:03:26.201Z,4.24
2023-03-21T00:05:54.711Z,4.22
2023-03-21T00:08:26.289Z,4.20
2023-03-21T00:10:57.726Z,4.18
2023-03-21T00:13:26.917Z,4.16
2023-03-21T00:16:05.087Z,4.13
2023-03-21T00:18:42.552Z,4.22
2023-03-21T00:21:44.015Z,4.26
2023-03-21T00:24:04.630Z,4.21
2023-03-21T00:26:34.713Z,4.19
2023-03-21T00:29:04.010Z,4.17
2023-03-21T00:31:36.197Z,4.16
2023-03-21T00:34:06.081Z,4.14
2023-03-21T00:36:34.668Z,4.22
2023-03-21T00:39:06.452Z,4.27
2023-03-21T00:41:42.633Z,4.25
2023-03-21T00:44:14.025Z,4.22
2023-03-21T00:46:49.352Z,4.21
2023-03-21T00:49:22.661Z,4.19
2023-03-21T00:51:51.440Z,4.17
2023-03-21T00:54:20.921Z,4.26
2023-03-21T00:56:49.223Z,4.32
2023-03-21T00:59:17.961Z,4.28
2023-03-21T01:01:54.180Z,4.24
2023-03-21T01:04:26.940Z,4.21
2023-03-21T01:06:55.353Z,4.19
2023-03-21T01:09:24.481Z,4.19
2023-03-21T01:11:53.417Z,4.27
2023-03-21T01:14:23.688Z,4.28
2023-03-21T01:16:53.169Z,4.24
2023-03-21T01:19:37.947Z,4.20
2023-03-21T01:22:12.615Z,4.16
2023-03-21T01:24:52.468Z,4.10
2023-03-21T01:27:23.708Z,4.16
2023-03-21T01:29:53.039Z,4.20
2023-03-21T01:32:21.897Z,4.15
2023-03-21T01:34:50.413Z,4.11
2023-03-21T01:37:20.116Z,4.08
2023-03-21T01:39:50.448Z,4.05
2023-03-21T01:42:18.595Z,4.03
2023-03-21T01:44:58.540Z,4.11
2023-03-21T01:47:35.681Z,4.18
2023-03-21T01:50:08.295Z,4.14
2023-03-21T01:52:55.208Z,4.11
2023-03-21T01:55:32.397Z,4.08
2023-03-21T01:58:22.287Z,4.06
2023-03-21T02:01:06.501Z,4.05
2023-03-21T02:03:50.685Z,4.16
2023-03-21T02:06:51.873Z,4.19
2023-03-21T02:09:33.699Z,4.14
2023-03-21T02:12:07.375Z,4.08
2023-03-21T02:14:37.825Z,4.08
2023-03-21T02:17:20.746Z,4.08
2023-03-21T02:20:36.354Z,4.06
2023-03-21T02:23:16.988Z,4.17
2023-03-21T02:26:08.732Z,4.22
2023-03-21T02:28:58.207Z,4.19
2023-03-21T02:31:32.641Z,4.14
2023-03-21T02:34:16.319Z,4.08
2023-03-21T02:37:07.786Z,4.01
2023-03-21T02:39:45.322Z,3.95
2023-03-21T02:42:32.174Z,4.02
2023-03-21T02:45:08.316Z,4.03
2023-03-21T02:47:42.966Z,3.96
2023-03-21T02:50:46.311Z,3.89
2023-03-21T02:53:18.367Z,3.78
2023-03-21T02:55:47.607Z,3.71
2023-03-21T02:58:18.389Z,3.78
2023-03-21T03:00:50.502Z,3.81
2023-03-21T03:03:34.598Z,3.76
2023-03-21T03:06:28.891Z,3.69
2023-03-21T03:09:04.333Z,3.63
2023-03-21T03:11:35.881Z,3.58
2023-03-21T03:14:38.460Z,3.54
2023-03-21T03:17:08.208Z,3.61
2023-03-21T03:19:55.075Z,3.63
2023-03-21T03:22:25.622Z,3.57
2023-03-21T03:25:19.828Z,3.51
2023-03-21T03:27:53.345Z,3.44
2023-03-21T03:30:23.803Z,3.38
2023-03-21T03:32:56.498Z,3.43
2023-03-21T03:35:24.942Z,3.45
2023-03-21T03:37:57.723Z,3.38
2023-03-21T03:40:31.376Z,3.31
2023-03-21T03:43:10.828Z,3.27
2023-03-21T03:46:13.895Z,3.25
2023-03-21T03:48:49.128Z,3.35
2023-03-21T03:51:38.300Z,3.39
2023-03-21T03:54:12.454Z,3.35
2023-03-21T03:56:42.794Z,3.32
2023-03-21T03:59:10.898Z,3.27
2023-03-21T04:02:01.865Z,3.26
2023-03-21T04:04:31.885Z,3.35
2023-03-21T04:07:03.530Z,3.40
2023-03-21T04:09:43.521Z,3.38
2023-03-21T04:12:15.551Z,3.32
2023-03-21T04:14:56.985Z,3.27
2023-03-21T04:17:35.022Z,3.26
2023-03-21T04:20:12.070Z,3.32
2023-03-21T04:22:43.194Z,3.30
2023-03-21T04:25:18.961Z,3.24
2023-03-21T04:27:56.250Z,3.18
2023-03-21T04:31:02.508Z,3.21
2023-03-21T04:33:41.939Z,3.32
2023-03-21T04:36:26.049Z,3.35
2023-03-21T04:39:01.102Z,3.34
2023-03-21T04:41:29.252Z,3.34
2023-03-21T04:44:03.593Z,3.34
2023-03-21T04:46:33.249Z,3.48
2023-03-21T04:49:01.842Z,3.58
2023-03-21T04:51:30.431Z,3.57
2023-03-21T04:53:58.847Z,3.56
2023-03-21T04:56:32.654Z,3.55
2023-03-21T04:59:08.999Z,3.54
2023-03-21T05:01:37.164Z,3.65
2023-03-21T05:04:05.754Z,3.75
2023-03-21T05:06:35.975Z,3.78
2023-03-21T05:09:05.662Z,3.80
2023-03-21T05:11:38.607Z,3.81
2023-03-21T05:14:08.088Z,3.85
2023-03-21T05:16:36.519Z,3.99
2023-03-21T05:19:05.221Z,4.12
2023-03-21T05:21:43.607Z,4.16
2023-03-21T05:24:20.609Z,4.16
2023-03-21T05:26:52.607Z,4.17
2023-03-21T05:29:24.369Z,4.23
2023-03-21T05:32:00.248Z,4.41
2023-03-21T05:34:28.610Z,4.53
2023-03-21T05:36:56.739Z,4.58
2023-03-21T05:39:27.476Z,4.65
2023-03-21T05:42:01.794Z,4.69
2023-03-21T05:44:30.938Z,4.72
2023-03-21T05:47:00.672Z,4.84
2023-03-21T05:49:38.074Z,4.94
2023-03-21T05:52:06.807Z,4.95
2023-03-21T05:54:38.674Z,4.92
2023-03-21T05:57:07.069Z,4.96
2023-03-21T06:00:05.189Z,5.05
2023-03-21T06:02:44.630Z,5.23
2023-03-21T06:05:31.949Z,5.37
2023-03-21T06:08:01.009Z,5.44
2023-03-21T06:10:33.569Z,5.47
2023-03-21T06:13:03.680Z,5.52
2023-03-21T06:15:36.810Z,5.61
2023-03-21T06:18:10.469Z,5.82
2023-03-21T06:20:39.789Z,5.96
2023-03-21T06:23:12.497Z,6.04
2023-03-21T06:25:41.270Z,6.12
2023-03-21T06:28:09.812Z,6.24
2023-03-21T06:30:47.101Z,6.37
2023-03-21T06:33:20.956Z,6.43
2023-03-21T06:35:56.504Z,6.50
2023-03-21T06:38:25.661Z,6.64
2023-03-21T06:40:54.612Z,6.71
2023-03-21T06:43:23.943Z,6.68
2023-03-21T06:45:52.159Z,6.66
2023-03-21T06:48:20.350Z,6.67
2023-03-21T06:50:54.851Z,6.71
2023-03-21T06:53:27.483Z,6.73
2023-03-21T06:56:18.573Z,6.87
2023-03-21T06:58:48.099Z,7.01
2023-03-21T07:01:37.382Z,7.08
2023-03-21T07:04:07.616Z,7.17
2023-03-21T07:06:37.322Z,7.27
2023-03-21T07:09:13.409Z,7.34
2023-03-21T07:11:42.724Z,7.36
2023-03-21T07:14:11.638Z,7.45
2023-03-21T07:16:44.838Z,7.55
2023-03-21T07:19:16.012Z,7.63
2023-03-21T07:21:44.282Z,7.76
2023-03-21T07:24:16.156Z,7.92
2023-03-21T07:26:44.466Z,8.03
2023-03-21T07:29:13.689Z,8.14
2023-03-21T07:31:47.441Z,8.25
2023-03-21T07:34:17.064Z,8.30
2023-03-21T07:36:45.362Z,8.36
2023-03-21T07:39:17.809Z,8.45
2023-03-21T07:41:46.258Z,8.54
2023-03-21T07:44:25.318Z,8.67
2023-03-21T07:47:01.726Z,8.78
2023-03-21T07:49:30.193Z,8.86
2023-03-21T07:52:00.141Z,8.97
2023-03-21T07:54:29.359Z,9.11
2023-03-21T07:56:57.413Z,9.21
2023-03-21T07:59:26.440Z,9.33
2023-03-21T08:01:54.764Z,9.45
2023-03-21T08:04:22.853Z,9.55
2023-03-21T08:06:51.869Z,9.70
2023-03-21T08:09:20.194Z,9.83
2023-03-21T08:11:54.357Z,9.97
2023-03-21T08:14:22.626Z,10.12
2023-03-21T08:16:51.013Z,10.28
2023-03-21T08:19:23.198Z,10.47
2023-03-21T08:21:53.768Z,10.69
2023-03-21T08:24:22.121Z,10.92
2023-03-21T08:26:53.669Z,11.13
2023-03-21T08:29:25.238Z,11.34
2023-03-21T08:31:53.402Z,11.57
2023-03-21T08:34:23.988Z,11.77
2023-03-21T08:36:51.980Z,11.89
2023-03-21T08:39:21.942Z,12.01
2023-03-21T08:41:50.082Z,12.16
2023-03-21T08:44:18.127Z,12.33
2023-03-21T08:46:46.177Z,12.55
2023-03-21T08:49:14.253Z,12.73
2023-03-21T08:51:45.792Z,12.82
2023-03-21T08:54:31.722Z,12.89
2023-03-21T08:57:00.468Z,12.92
2023-03-21T08:59:28.554Z,12.95
2023-03-21T09:01:56.769Z,12.98
2023-03-21T09:04:26.420Z,13.01
2023-03-21T09:06:56.481Z,13.11
2023-03-21T09:09:24.785Z,13.34
2023-03-21T09:11:52.802Z,13.58
2023-03-21T09:14:23.875Z,13.86
2023-03-21T09:16:57.991Z,14.29
2023-03-21T09:19:26.350Z,14.81
2023-03-21T09:21:57.942Z,15.36
2023-03-21T09:24:26.608Z,15.80
2023-03-21T09:26:56.633Z,16.19
2023-03-21T09:29:25.044Z,16.44
2023-03-21T09:31:53.966Z,16.73
2023-03-21T09:34:22.673Z,17.16
2023-03-21T09:36:52.020Z,17.55
2023-03-21T09:39:26.606Z,17.90
2023-03-21T09:42:17.978Z,18.26
2023-03-21T09:44:59.269Z,18.45
2023-03-21T09:47:37.808Z,18.31
2023-03-21T09:50:17.662Z,18.22
2023-03-21T09:52:58.870Z,18.33
2023-03-21T09:55:35.488Z,18.59
2023-03-21T09:58:21.678Z,19.00
2023-03-21T10:00:55.811Z,19.33
2023-03-21T10:03:35.213Z,19.51
2023-03-21T10:06:12.371Z,19.68
2023-03-21T10:08:41.516Z,19.97
2023-03-21T10:11:24.672Z,20.12
2023-03-21T10:13:55.802Z,20.28
2023-03-21T10:17:33.564Z,20.63
2023-03-21T10:20:12.257Z,20.75
2023-03-21T10:22:46.190Z,20.69
2023-03-21T10:25:47.338Z,20.82
2023-03-21T10:28:21.576Z,20.98
2023-03-21T10:30:57.015Z,21.38
2023-03-21T10:33:27.466Z,21.84
2023-03-21T10:35:59.031Z,22.30
2023-03-21T10:38:27.417Z,22.81
2023-03-21T10:40:56.510Z,22.86
2023-03-21T10:43:27.609Z,22.76
2023-03-21T10:45:58.422Z,22.64
2023-03-21T10:48:26.767Z,22.83
2023-03-21T10:50:55.064Z,23.18
2023-03-21T10:53:27.980Z,23.19
2023-03-21T10:56:02.073Z,22.89
2023-03-21T10:58:39.211Z,22.71
2023-03-21T11:01:10.832Z,22.70
2023-03-21T11:03:44.569Z,22.57
2023-03-21T11:06:36.814Z,22.57
2023-03-21T11:09:08.554Z,22.71
2023-03-21T11:11:52.533Z,22.80
2023-03-21T11:14:34.388Z,23.02
2023-03-21T11:17:02.703Z,23.21
2023-03-21T11:19:32.943Z,23.19
2023-03-21T11:22:11.132Z,23.21
2023-03-21T11:24:39.134Z,23.20
2023-03-21T11:27:07.843Z,22.99
2023-03-21T11:29:39.049Z,23.00
2023-03-21T11:32:36.173Z,23.27
2023-03-21T11:35:21.939Z,23.32
2023-03-21T11:37:57.907Z,23.21
2023-03-21T11:40:27.415Z,23.35
2023-03-21T11:42:59.239Z,23.93
2023-03-21T11:45:31.121Z,24.54
2023-03-21T11:48:01.090Z,24.56
2023-03-21T11:50:34.067Z,24.24
2023-03-21T11:53:29.974Z,24.14
2023-03-21T11:56:16.730Z,24.16
2023-03-21T11:59:07.095Z,24.01
2023-03-21T12:01:37.269Z,23.66
2023-03-21T12:04:27.336Z,23.45
2023-03-21T12:07:33.414Z,23.31
2023-03-21T12:10:11.393Z,23.50
2023-03-21T12:13:01.372Z,23.96
2023-03-21T12:15:35.401Z,24.44
2023-03-21T12:18:06.513Z,24.69
2023-03-21T12:20:37.857Z,24.56
2023-03-21T12:23:38.278Z,24.05
2023-03-21T12:26:21.100Z,23.45
2023-03-21T12:29:12.454Z,22.90
2023-03-21T12:32:18.186Z,22.17
2023-03-21T12:35:16.778Z,21.49
2023-03-21T12:38:10.475Z,21.12
2023-03-21T12:40:49.709Z,20.83
2023-03-21T12:43:41.231Z,20.60
2023-03-21T12:46:24.465Z,20.55
2023-03-21T12:49:03.272Z,20.46
2023-03-21T12:51:37.423Z,20.25
2023-03-21T12:54:08.742Z,19.93
2023-03-21T12:56:39.979Z,19.67
2023-03-21T12:59:26.384Z,19.41
2023-03-21T13:01:56.760Z,19.08
2023-03-21T13:04:41.109Z,18.76
2023-03-21T13:07:11.758Z,18.39
2023-03-21T13:09:41.005Z,18.11
2023-03-21T13:12:43.589Z,17.86
2023-03-21T13:15:27.843Z,17.60
2023-03-21T13:17:58.980Z,17.37
2023-03-21T13:20:49.610Z,17.14
2023-03-21T13:23:22.258Z,16.92
2023-03-21T13:25:52.397Z,16.72
2023-03-21T13:28:34.678Z,16.57
2023-03-21T13:31:26.254Z,16.45
2023-03-21T13:33:55.875Z,16.41
2023-03-21T13:36:26.932Z,16.40
2023-03-21T13:39:00.993Z,16.38
2023-03-21T13:41:37.276Z,16.39
2023-03-21T13:44:09.020Z,16.37
2023-03-21T13:46:53.561Z,16.41
2023-03-21T13:49:29.164Z,16.48
2023-03-21T13:51:58.648Z,16.51
2023-03-21T13:54:34.479Z,16.55
2023-03-21T13:57:14.513Z,16.59
2023-03-21T13:59:49.107Z,16.59
2023-03-21T14:02:29.384Z,16.55
2023-03-21T14:05:06.853Z,16.49
2023-03-21T14:07:42.696Z,16.40
2023-03-21T14:10:30.840Z,16.30
2023-03-21T14:12:59.056Z,16.18
2023-03-21T14:15:56.355Z,16.09
2023-03-21T14:18:41.136Z,15.94
2023-03-21T14:21:25.721Z,15.78
2023-03-21T14:23:58.125Z,15.67
2023-03-21T14:26:32.519Z,15.55
2023-03-21T14:29:05.257Z,15.41
2023-03-21T14:31:34.593Z,15.30
2023-03-21T14:34:02.867Z,15.22
2023-03-21T14:36:32.951Z,15.16
2023-03-21T14:39:12.281Z,15.09
2023-03-21T14:41:49.650Z,15.01
2023-03-21T14:44:30.275Z,14.93
2023-03-21T14:47:03.857Z,14.89
2023-03-21T14:49:36.511Z,14.86
2023-03-21T14:52:07.304Z,14.83
2023-03-21T14:54:36.604Z,14.79
2023-03-21T14:57:07.970Z,14.73
2023-03-21T14:59:38.961Z,14.70
2023-03-21T15:02:17.465Z,14.68
2023-03-21T15:04:47.285Z,14.66
2023-03-21T15:07:32.375Z,14.63
2023-03-21T15:10:04.899Z,14.57
2023-03-21T15:12:34.536Z,14.50
2023-03-21T15:15:06.005Z,14.44
2023-03-21T15:17:34.157Z,14.30
2023-03-21T15:20:10.326Z,14.14
2023-03-21T15:22:40.908Z,13.99
2023-03-21T15:25:13.393Z,13.84
2023-03-21T15:27:43.240Z,13.68
2023-03-21T15:30:28.155Z,13.55
2023-03-21T15:32:57.389Z,13.43
2023-03-21T15:35:30.790Z,13.32
2023-03-21T15:37:59.495Z,13.21
2023-03-21T15:40:30.313Z,13.11
2023-03-21T15:43:18.891Z,13.02
2023-03-21T15:45:51.494Z,12.92
2023-03-21T15:48:27.843Z,12.83
2023-03-21T15:51:06.217Z,12.73
2023-03-21T15:53:37.223Z,12.57
2023-03-21T15:56:06.203Z,12.37
2023-03-21T15:58:41.476Z,12.23
2023-03-21T16:01:20.121Z,12.12
2023-03-21T16:04:02.701Z,12.00
2023-03-21T16:06:33.717Z,11.83
2023-03-21T16:09:14.340Z,11.67
2023-03-21T16:11:48.591Z,11.53
2023-03-21T16:14:18.734Z,11.53
2023-03-21T16:16:46.786Z,11.51
2023-03-21T16:19:16.636Z,11.42
2023-03-21T16:21:44.933Z,11.33
2023-03-21T16:24:13.647Z,11.22
2023-03-21T16:26:46.271Z,11.12
2023-03-21T16:29:15.015Z,11.15
2023-03-21T16:31:43.189Z,11.16
2023-03-21T16:34:12.819Z,11.14
2023-03-21T16:36:44.326Z,11.15
2023-03-21T16:39:24.854Z,11.23
2023-03-21T16:41:53.280Z,11.37
2023-03-21T16:44:21.656Z,11.42
2023-03-21T16:46:50.133Z,11.39
2023-03-21T16:49:28.054Z,11.25
2023-03-21T16:51:59.712Z,11.19
2023-03-21T16:54:31.941Z,11.20
2023-03-21T16:57:01.429Z,11.16
2023-03-21T16:59:29.520Z,11.13
2023-03-21T17:01:58.038Z,11.11
2023-03-21T17:04:26.183Z,11.13
2023-03-21T17:06:54.582Z,11.22
2023-03-21T17:09:24.522Z,11.28
2023-03-21T17:11:52.901Z,11.28
2023-03-21T17:14:25.812Z,11.26
2023-03-21T17:16:55.391Z,11.21
2023-03-21T17:19:26.443Z,11.19
2023-03-21T17:21:55.462Z,11.25
2023-03-21T17:24:23.940Z,11.32
2023-03-21T17:26:52.734Z,11.35
2023-03-21T17:29:23.451Z,11.35
2023-03-21T17:31:51.935Z,11.34
2023-03-21T17:34:20.623Z,11.45
2023-03-21T17:36:57.290Z,11.55
2023-03-21T17:39:26.821Z,11.59
2023-03-21T17:41:56.179Z,11.62
2023-03-21T17:44:24.273Z,11.64
2023-03-21T17:46:52.653Z,11.73
2023-03-21T17:49:21.935Z,11.80
2023-03-21T17:51:50.559Z,11.76
2023-03-21T17:54:18.914Z,11.72
2023-03-21T17:56:47.579Z,11.66
2023-03-21T17:59:17.206Z,11.62
2023-03-21T18:01:47.692Z,11.59
2023-03-21T18:04:17.278Z,11.49
2023-03-21T18:06:45.708Z,11.39
2023-03-21T18:09:20.229Z,11.30
2023-03-21T18:11:50.045Z,11.22
2023-03-21T18:14:27.095Z,11.26
2023-03-21T18:16:58.160Z,11.26
2023-03-21T18:19:27.392Z,11.16
2023-03-21T18:21:56.177Z,11.11
2023-03-21T18:24:24.437Z,11.08
2023-03-21T18:26:52.543Z,11.13
2023-03-21T18:32:09.754Z,11.08
2023-03-21T18:34:40.156Z,11.01
2023-03-21T18:37:08.824Z,10.94
2023-03-21T18:39:38.068Z,10.93
2023-03-21T18:42:07.818Z,11.07
2023-03-21T18:44:45.789Z,11.21
2023-03-21T18:47:14.427Z,11.27
2023-03-21T18:50:13.132Z,11.31
2023-03-21T18:52:32.088Z,11.35
2023-03-21T18:55:01.257Z,11.44
2023-03-21T18:57:39.027Z,11.48
2023-03-21T19:00:13.179Z,11.44
2023-03-21T19:02:46.892Z,11.41
2023-03-21T19:05:17.352Z,11.39
2023-03-21T19:07:46.620Z,11.34
2023-03-21T19:10:18.647Z,11.39
2023-03-21T19:12:52.703Z,11.42
2023-03-21T19:15:21.898Z,11.38
2023-03-21T19:18:33.992Z,11.32
2023-03-21T19:20:46.093Z,11.21
2023-03-21T19:23:17.755Z,11.11
2023-03-21T19:25:47.042Z,11.14
2023-03-21T19:28:17.338Z,11.20
2023-03-21T19:30:50.033Z,11.16
2023-03-21T19:33:24.598Z,11.10
2023-03-21T19:36:10.755Z,11.02
2023-03-21T19:38:40.968Z,10.91
2023-03-21T19:41:09.109Z,10.93
2023-03-21T19:43:40.021Z,10.95
2023-03-21T19:46:09.111Z,10.91
2023-03-21T19:48:38.898Z,10.87
2023-03-21T19:51:26.942Z,10.86
2023-03-21T19:53:56.039Z,10.87
2023-03-21T19:56:27.030Z,11.00
2023-03-21T19:58:56.099Z,11.03
2023-03-21T20:01:24.939Z,10.95
2023-03-21T20:03:56.496Z,10.82
2023-03-21T20:06:26.820Z,10.73
2023-03-21T20:11:47.475Z,10.74
2023-03-21T20:14:17.126Z,10.81
2023-03-21T20:16:45.628Z,10.76
2023-03-21T20:19:16.179Z,10.64
2023-03-21T20:21:52.918Z,10.57
2023-03-21T20:24:28.397Z,10.66
2023-03-21T20:26:57.348Z,10.68
2023-03-21T20:32:14.301Z,10.54
2023-03-21T20:34:44.430Z,10.49
2023-03-21T20:37:13.846Z,10.54
2023-03-21T20:39:42.602Z,10.57
2023-03-21T20:42:10.709Z,10.51
2023-03-21T20:44:57.233Z,10.44
2023-03-21T20:47:28.154Z,10.42
2023-03-21T20:50:00.324Z,10.36
2023-03-21T20:55:18.767Z,10.43
2023-03-21T20:57:48.681Z,10.39
2023-03-21T21:00:17.868Z,10.37
2023-03-21T21:02:50.507Z,10.40
2023-03-21T21:05:35.721Z,10.48
2023-03-21T21:08:06.904Z,10.53
2023-03-21T21:10:52.415Z,10.53
2023-03-21T21:13:23.794Z,10.54
2023-03-21T21:15:55.656Z,10.56
2023-03-21T21:18:29.144Z,10.57
2023-03-21T21:20:58.808Z,10.70
2023-03-21T21:23:29.421Z,10.74
2023-03-21T21:25:58.099Z,10.73
2023-03-21T21:28:29.017Z,10.69
2023-03-21T21:31:01.012Z,10.65
2023-03-21T21:33:30.334Z,10.59
2023-03-21T21:36:03.809Z,10.55
2023-03-21T21:38:34.802Z,10.61
2023-03-21T21:41:03.060Z,10.65
2023-03-21T21:43:32.322Z,10.60
2023-03-21T21:46:00.569Z,10.52
2023-03-21T21:48:30.492Z,10.46
2023-03-21T21:50:59.198Z,10.39
2023-03-21T21:53:28.420Z,10.44
2023-03-21T21:55:56.441Z,10.44
2023-03-21T21:58:26.038Z,10.36
2023-03-21T22:00:54.454Z,10.28
2023-03-21T22:03:23.326Z,10.23
2023-03-21T22:05:52.481Z,10.23
2023-03-21T22:08:21.382Z,10.30
2023-03-21T22:10:50.670Z,10.35
2023-03-21T22:13:18.851Z,10.31
2023-03-21T22:15:47.123Z,10.27
2023-03-21T22:18:15.759Z,10.20
2023-03-21T22:20:44.152Z,10.12
2023-03-21T22:23:12.206Z,10.07
2023-03-21T22:25:40.702Z,10.12
2023-03-21T22:28:08.712Z,10.18
2023-03-21T22:30:37.858Z,10.19
2023-03-21T22:35:11.706Z,10.17
2023-03-21T22:37:40.893Z,10.11
2023-03-21T22:40:10.218Z,10.11
2023-03-21T22:42:39.740Z,10.11
2023-03-21T22:45:08.385Z,10.07
2023-03-21T22:47:35.891Z,10.04
2023-03-21T22:50:03.993Z,10.04
2023-03-21T22:52:31.011Z,10.02
2023-03-21T22:54:57.853Z,10.07
2023-03-21T22:57:24.794Z,10.08
2023-03-21T22:59:51.735Z,10.01
2023-03-21T23:02:18.506Z,9.93
2023-03-21T23:04:45.160Z,9.81
2023-03-21T23:07:11.932Z,9.72
2023-03-21T23:09:40.026Z,9.74
2023-03-21T23:12:06.907Z,9.75
2023-03-21T23:14:36.069Z,9.66
2023-03-21T23:17:03.451Z,9.56
2023-03-21T23:19:31.613Z,9.47
2023-03-21T23:21:58.586Z,9.42
2023-03-21T23:24:26.664Z,9.52
2023-03-21T23:26:53.268Z,9.62
2023-03-21T23:29:21.078Z,9.62
2023-03-21T23:31:48.296Z,9.60
2023-03-21T23:34:15.172Z,9.59
2023-03-21T23:36:42.713Z,9.62
2023-03-21T23:39:09.379Z,9.75
2023-03-21T23:41:36.108Z,9.82
2023-03-21T23:44:02.671Z,9.79
2023-03-21T23:46:34.043Z,9.78
2023-03-21T23:49:01.675Z,9.80
2023-03-21T23:51:28.477Z,9.78
2023-03-21T23:53:55.977Z,9.83
2023-03-21T23:56:24.119Z,9.84
2023-03-21T23:58:56.464Z,9.77
